createdAt,value
2018-07-27T00:00:49.709Z,34.79
2018-07-27T00:01:53.960Z,34.86
2018-07-27T00:02:58.318Z,34.90
2018-07-27T00:04:02.492Z,35.12
2018-07-27T00:05:06.908Z,35.00
2018-07-27T00:06:11.464Z,35.05
2018-07-27T00:07:15.739Z,35.05
2018-07-27T00:08:19.994Z,34.91
2018-07-27T00:09:24.259Z,34.85
2018-07-27T00:10:28.440Z,34.83
2018-07-27T00:11:32.569Z,34.89
2018-07-27T00:12:37.211Z,34.90
2018-07-27T00:13:41.377Z,34.93
2018-07-27T00:14:45.546Z,35.01
2018-07-27T00:15:49.840Z,34.95
2018-07-27T00:16:54.002Z,34.97
2018-07-27T00:17:58.365Z,34.88
2018-07-27T00:19:02.599Z,34.81
2018-07-27T00:20:06.925Z,35.01
2018-07-27T00:21:11.554Z,34.86
2018-07-27T00:22:15.843Z,34.77
2018-07-27T00:23:20.006Z,34.91
2018-07-27T00:24:24.239Z,34.66
2018-07-27T00:25:28.438Z,34.83
2018-07-27T00:26:32.769Z,34.63
2018-07-27T00:27:36.890Z,34.67
2018-07-27T00:28:41.186Z,34.73
2018-07-27T00:29:45.437Z,34.69
2018-07-27T00:30:49.691Z,34.77
2018-07-27T00:31:54.294Z,34.70
2018-07-27T00:32:58.629Z,34.79
2018-07-27T00:34:02.782Z,34.98
2018-07-27T00:35:07.236Z,34.83
2018-07-27T00:36:11.379Z,34.95
2018-07-27T00:37:15.853Z,35.26
2018-07-27T00:38:19.995Z,34.85
2018-07-27T00:39:24.177Z,34.77
2018-07-27T00:40:28.422Z,34.98
2018-07-27T00:41:32.566Z,34.90
2018-07-27T00:42:36.764Z,34.90
2018-07-27T00:43:41.104Z,34.89
2018-07-27T00:44:45.287Z,34.89
2018-07-27T00:45:49.803Z,35.04
2018-07-27T00:46:53.965Z,34.82
2018-07-27T00:47:58.140Z,34.45
2018-07-27T00:49:02.535Z,34.84
2018-07-27T00:50:07.158Z,35.02
2018-07-27T00:51:11.415Z,34.93
2018-07-27T00:52:15.746Z,35.00
2018-07-27T00:53:19.895Z,34.94
2018-07-27T00:54:24.022Z,34.82
2018-07-27T00:55:28.302Z,34.98
2018-07-27T00:56:32.491Z,35.22
2018-07-27T00:57:36.674Z,35.15
2018-07-27T00:58:40.975Z,35.27
2018-07-27T00:59:45.078Z,34.77
2018-07-27T01:00:49.291Z,35.18
2018-07-27T01:01:53.803Z,35.48
2018-07-27T01:02:58.010Z,35.14
2018-07-27T01:04:02.160Z,35.08
2018-07-27T01:05:06.411Z,35.06
2018-07-27T01:06:10.717Z,35.44
2018-07-27T01:07:14.965Z,35.54
2018-07-27T01:08:19.153Z,35.29
2018-07-27T01:09:23.333Z,34.97
2018-07-27T01:10:27.548Z,35.19
2018-07-27T01:11:31.935Z,35.25
2018-07-27T01:12:36.168Z,35.17
2018-07-27T01:13:40.461Z,34.90
2018-07-27T01:14:44.871Z,35.44
2018-07-27T01:15:49.030Z,35.30
2018-07-27T01:16:53.218Z,35.45
2018-07-27T01:17:58.299Z,35.44
2018-07-27T01:19:02.480Z,34.83
2018-07-27T01:20:07.816Z,35.35
2018-07-27T01:21:12.344Z,35.36
2018-07-27T01:22:16.685Z,35.27
2018-07-27T01:23:20.861Z,34.89
2018-07-27T01:24:25.026Z,35.22
2018-07-27T01:25:29.397Z,35.34
2018-07-27T01:26:33.589Z,35.06
2018-07-27T01:27:37.730Z,35.50
2018-07-27T01:28:42.097Z,35.80
2018-07-27T01:29:46.233Z,35.09
2018-07-27T01:30:50.381Z,35.09
2018-07-27T01:31:54.733Z,35.02
2018-07-27T01:32:58.914Z,34.56
2018-07-27T01:34:03.380Z,34.61
2018-07-27T01:35:07.541Z,35.03
2018-07-27T01:36:11.698Z,35.63
2018-07-27T01:37:15.915Z,34.71
2018-07-27T01:38:20.185Z,34.71
2018-07-27T01:39:24.433Z,35.07
2018-07-27T01:40:28.869Z,34.86
2018-07-27T01:41:33.387Z,35.43
2018-07-27T01:42:37.712Z,35.35
2018-07-27T01:43:41.934Z,34.88
2018-07-27T01:44:46.101Z,35.62
2018-07-27T01:45:50.277Z,35.63
2018-07-27T01:46:54.530Z,35.22
2018-07-27T01:47:58.685Z,35.46
2018-07-27T01:49:02.914Z,36.01
2018-07-27T01:50:07.093Z,35.41
2018-07-27T01:51:11.258Z,35.35
2018-07-27T01:52:15.405Z,35.24
2018-07-27T01:53:19.920Z,35.94
2018-07-27T01:54:24.101Z,35.45
2018-07-27T01:55:28.490Z,36.09
2018-07-27T01:56:32.947Z,35.65
2018-07-27T01:57:37.378Z,35.44
2018-07-27T01:58:41.586Z,35.55
2018-07-27T01:59:45.932Z,35.50
2018-07-27T02:00:50.218Z,36.12
2018-07-27T02:01:54.463Z,35.89
2018-07-27T02:02:58.850Z,35.94
2018-07-27T02:04:03.331Z,35.40
2018-07-27T02:05:07.710Z,35.79
2018-07-27T02:06:12.193Z,36.15
2018-07-27T02:07:16.431Z,36.36
2018-07-27T02:08:20.702Z,36.27
2018-07-27T02:09:25.185Z,36.40
2018-07-27T02:10:29.376Z,36.15
2018-07-27T02:11:33.667Z,36.48
2018-07-27T02:12:37.965Z,35.71
2018-07-27T02:13:42.312Z,35.73
2018-07-27T02:14:46.511Z,36.12
2018-07-27T02:15:50.866Z,36.36
2018-07-27T02:16:55.277Z,35.87
2018-07-27T02:17:59.555Z,36.57
2018-07-27T02:19:03.755Z,35.72
2018-07-27T02:20:07.906Z,36.35
2018-07-27T02:21:12.251Z,36.64
2018-07-27T02:22:16.761Z,36.69
2018-07-27T02:23:20.948Z,36.92
2018-07-27T02:24:25.199Z,36.35
2018-07-27T02:25:29.422Z,36.02
2018-07-27T02:26:33.626Z,36.90
2018-07-27T02:27:38.095Z,36.14
2018-07-27T02:28:42.284Z,37.00
2018-07-27T02:29:46.614Z,36.18
2018-07-27T02:30:50.938Z,36.46
2018-07-27T02:31:55.118Z,36.85
2018-07-27T02:32:59.290Z,37.24
2018-07-27T02:34:03.680Z,37.13
2018-07-27T02:35:07.849Z,36.65
2018-07-27T02:36:12.251Z,36.52
2018-07-27T02:37:16.458Z,36.87
2018-07-27T02:38:20.613Z,36.77
2018-07-27T02:39:24.763Z,36.60
2018-07-27T02:40:28.969Z,37.19
2018-07-27T02:41:33.097Z,36.91
2018-07-27T02:42:37.388Z,37.72
2018-07-27T02:43:41.685Z,36.75
2018-07-27T02:44:45.975Z,37.05
2018-07-27T02:45:50.366Z,37.91
2018-07-27T02:46:54.529Z,38.23
2018-07-27T02:47:58.793Z,37.94
2018-07-27T02:49:02.998Z,37.25
2018-07-27T02:50:07.177Z,38.42
2018-07-27T02:51:11.646Z,38.13
2018-07-27T02:52:15.880Z,38.40
2018-07-27T02:53:20.158Z,38.55
2018-07-27T02:54:24.414Z,37.95
2018-07-27T02:55:28.663Z,38.34
2018-07-27T02:56:32.983Z,39.03
2018-07-27T02:57:37.173Z,38.84
2018-07-27T02:58:41.346Z,38.82
2018-07-27T02:59:45.498Z,38.30
2018-07-27T03:00:50.190Z,39.04
2018-07-27T03:01:54.355Z,38.44
2018-07-27T03:02:58.622Z,38.72
2018-07-27T03:04:02.790Z,39.11
2018-07-27T03:05:07.632Z,38.74
2018-07-27T03:06:11.847Z,39.53
2018-07-27T03:07:16.007Z,39.51
2018-07-27T03:08:20.243Z,39.89
2018-07-27T03:09:24.410Z,40.30
2018-07-27T03:10:28.589Z,40.62
2018-07-27T03:11:32.810Z,40.63
2018-07-27T03:12:37.068Z,40.10
2018-07-27T03:13:41.499Z,40.87
2018-07-27T03:14:45.730Z,40.67
2018-07-27T03:15:50.173Z,41.21
2018-07-27T03:16:54.315Z,41.08
2018-07-27T03:17:58.518Z,41.08
2018-07-27T03:19:02.825Z,40.54
2018-07-27T03:20:07.052Z,41.25
2018-07-27T03:21:11.341Z,41.37
2018-07-27T03:22:15.910Z,41.37
2018-07-27T03:23:20.302Z,41.03
2018-07-27T03:24:24.730Z,41.36
2018-07-27T03:25:29.175Z,40.99
2018-07-27T03:26:33.383Z,41.58
2018-07-27T03:27:37.707Z,40.92
2018-07-27T03:28:41.949Z,40.97
2018-07-27T03:29:46.058Z,41.21
2018-07-27T03:30:50.324Z,40.67
2018-07-27T03:31:54.506Z,41.49
2018-07-27T03:32:58.707Z,41.33
2018-07-27T03:34:02.971Z,40.73
2018-07-27T03:35:07.334Z,40.92
2018-07-27T03:36:11.728Z,40.40
2018-07-27T03:37:15.940Z,40.19
2018-07-27T03:38:20.187Z,40.95
2018-07-27T03:39:24.582Z,40.99
2018-07-27T03:40:29.053Z,40.34
2018-07-27T03:41:33.339Z,40.63
2018-07-27T03:42:37.793Z,40.90
2018-07-27T03:43:42.119Z,40.26
2018-07-27T03:44:46.463Z,40.26
2018-07-27T03:45:50.610Z,40.33
2018-07-27T03:46:54.811Z,40.16
2018-07-27T03:47:59.211Z,40.31
2018-07-27T03:49:03.416Z,40.59
2018-07-27T03:50:07.764Z,40.53
2018-07-27T03:51:12.244Z,40.45
2018-07-27T03:52:16.550Z,40.48
2018-07-27T03:53:20.756Z,40.47
2018-07-27T03:54:24.974Z,40.61
2018-07-27T03:55:29.359Z,40.35
2018-07-27T03:56:33.670Z,40.54
2018-07-27T03:57:37.773Z,40.30
2018-07-27T03:58:42.090Z,40.17
2018-07-27T03:59:46.297Z,40.28
2018-07-27T04:00:50.481Z,39.79
2018-07-27T04:01:54.675Z,39.52
2018-07-27T04:02:58.834Z,39.47
2018-07-27T04:04:03.055Z,39.99
2018-07-27T04:05:07.277Z,39.93
2018-07-27T04:06:11.490Z,39.53
2018-07-27T04:07:15.735Z,39.59
2018-07-27T04:08:19.886Z,39.85
2018-07-27T04:09:24.183Z,40.10
2018-07-27T04:10:28.458Z,40.47
2018-07-27T04:11:32.679Z,39.55
2018-07-27T04:12:36.900Z,40.56
2018-07-27T04:13:41.186Z,40.33
2018-07-27T04:14:45.494Z,40.94
2018-07-27T04:15:49.885Z,40.91
2018-07-27T04:16:54.064Z,40.53
2018-07-27T04:18:02.182Z,40.66
2018-07-27T04:19:06.435Z,40.40
2018-07-27T04:20:10.718Z,40.44
2018-07-27T04:21:15.109Z,41.41
2018-07-27T04:22:20.205Z,41.02
2018-07-27T04:23:24.486Z,41.11
2018-07-27T04:24:28.854Z,40.94
2018-07-27T04:25:33.086Z,41.67
2018-07-27T04:26:37.377Z,41.27
2018-07-27T04:27:41.614Z,41.85
2018-07-27T04:28:45.888Z,41.92
2018-07-27T04:29:50.266Z,41.68
2018-07-27T04:30:54.714Z,42.09
2018-07-27T04:31:58.907Z,41.87
2018-07-27T04:33:03.658Z,42.03
2018-07-27T04:34:07.975Z,41.69
2018-07-27T04:35:12.639Z,41.85
2018-07-27T04:36:17.086Z,41.40
2018-07-27T04:37:21.293Z,41.76
2018-07-27T04:38:25.445Z,41.88
2018-07-27T04:39:30.298Z,41.14
2018-07-27T04:40:34.638Z,41.37
2018-07-27T04:41:39.145Z,41.55
2018-07-27T04:42:43.389Z,41.26
2018-07-27T04:43:47.744Z,41.10
2018-07-27T04:44:51.928Z,40.84
2018-07-27T04:45:56.072Z,41.54
2018-07-27T04:47:00.316Z,41.31
2018-07-27T04:48:04.641Z,41.53
2018-07-27T04:49:08.900Z,40.96
2018-07-27T04:50:13.137Z,41.54
2018-07-27T04:51:17.390Z,41.04
2018-07-27T04:52:21.702Z,40.53
2018-07-27T04:53:25.979Z,41.43
2018-07-27T04:54:30.282Z,40.57
2018-07-27T04:55:34.483Z,40.88
2018-07-27T04:56:38.737Z,40.23
2018-07-27T04:57:43.008Z,40.23
2018-07-27T04:58:47.156Z,40.64
2018-07-27T04:59:51.535Z,40.69
2018-07-27T05:00:55.696Z,40.63
2018-07-27T05:02:00.143Z,40.52
2018-07-27T05:03:04.570Z,39.93
2018-07-27T05:04:09.139Z,39.78
2018-07-27T05:05:13.357Z,39.71
2018-07-27T05:06:17.679Z,39.71
2018-07-27T05:07:22.035Z,39.90
2018-07-27T05:08:26.325Z,40.23
2018-07-27T05:09:30.692Z,39.73
2018-07-27T05:10:40.140Z,39.64
2018-07-27T05:11:44.585Z,39.39
2018-07-27T05:12:48.845Z,39.15
2018-07-27T05:13:53.082Z,39.81
2018-07-27T05:14:57.527Z,39.05
2018-07-27T05:16:01.964Z,38.90
2018-07-27T05:17:06.435Z,38.82
2018-07-27T05:18:10.858Z,39.58
2018-07-27T05:19:15.168Z,39.26
2018-07-27T05:20:19.455Z,39.45
2018-07-27T05:21:23.784Z,39.23
2018-07-27T05:22:28.343Z,38.76
2018-07-27T05:23:32.550Z,38.92
2018-07-27T05:24:36.962Z,38.73
2018-07-27T05:25:41.223Z,39.19
2018-07-27T05:26:45.460Z,39.09
2018-07-27T05:27:49.992Z,38.63
2018-07-27T05:28:54.441Z,39.07
2018-07-27T05:29:58.604Z,38.91
2018-07-27T05:31:03.057Z,38.02
2018-07-27T05:32:07.376Z,37.52
2018-07-27T05:33:11.967Z,38.41
2018-07-27T05:34:16.410Z,38.11
2018-07-27T05:35:20.722Z,37.52
2018-07-27T05:36:24.873Z,37.28
2018-07-27T05:37:29.126Z,37.39
2018-07-27T05:38:33.487Z,37.70
2018-07-27T05:39:37.779Z,36.61
2018-07-27T05:40:42.079Z,36.47
2018-07-27T05:41:46.363Z,36.56
2018-07-27T05:42:50.536Z,36.89
2018-07-27T05:43:54.780Z,36.38
2018-07-27T05:44:58.931Z,36.55
2018-07-27T05:46:03.179Z,35.96
2018-07-27T05:47:07.614Z,35.55
2018-07-27T05:48:11.870Z,35.87
2018-07-27T05:49:16.065Z,35.71
2018-07-27T05:50:20.235Z,35.61
2018-07-27T05:51:24.426Z,35.35
2018-07-27T05:52:28.993Z,35.63
2018-07-27T05:53:33.335Z,35.22
2018-07-27T05:54:37.564Z,35.36
2018-07-27T05:55:41.758Z,35.22
2018-07-27T05:56:45.986Z,35.04
2018-07-27T05:57:50.301Z,35.16
2018-07-27T05:58:54.996Z,35.02
2018-07-27T05:59:59.361Z,35.07
2018-07-27T06:01:03.615Z,35.02
2018-07-27T06:02:10.437Z,34.81
2018-07-27T06:03:13.347Z,35.05
2018-07-27T06:04:17.648Z,34.79
2018-07-27T06:05:21.989Z,34.88
2018-07-27T06:06:26.346Z,34.67
2018-07-27T06:07:30.526Z,34.64
2018-07-27T06:08:35.082Z,34.78
2018-07-27T06:09:39.337Z,34.74
2018-07-27T06:10:43.698Z,34.45
2018-07-27T06:11:47.847Z,34.42
2018-07-27T06:12:52.180Z,34.65
2018-07-27T06:13:56.826Z,34.45
2018-07-27T06:15:00.989Z,34.53
2018-07-27T06:16:05.391Z,34.70
2018-07-27T06:17:09.699Z,34.60
2018-07-27T06:18:14.018Z,34.51
2018-07-27T06:19:18.177Z,34.39
2018-07-27T06:20:22.562Z,34.12
2018-07-27T06:21:26.742Z,34.24
2018-07-27T06:22:31.452Z,33.88
2018-07-27T06:23:35.691Z,33.82
2018-07-27T06:24:50.070Z,33.74
2018-07-27T06:25:54.294Z,33.70
2018-07-27T06:26:58.599Z,33.57
2018-07-27T06:28:02.807Z,33.51
2018-07-27T06:29:07.007Z,33.34
2018-07-27T06:30:11.182Z,33.16
2018-07-27T06:31:15.374Z,32.94
2018-07-27T06:32:19.945Z,32.49
2018-07-27T06:33:24.178Z,32.64
2018-07-27T06:34:28.501Z,32.31
2018-07-27T06:35:32.775Z,32.93
2018-07-27T06:36:37.015Z,32.47
2018-07-27T06:37:41.462Z,32.41
2018-07-27T06:38:45.704Z,32.66
2018-07-27T06:39:50.042Z,32.50
2018-07-27T06:40:54.224Z,32.28
2018-07-27T06:41:58.416Z,32.36
2018-07-27T06:43:02.758Z,32.24
2018-07-27T06:44:06.974Z,32.78
2018-07-27T06:45:11.328Z,32.39
2018-07-27T06:46:15.620Z,32.00
2018-07-27T06:47:19.990Z,32.32
2018-07-27T06:48:24.210Z,32.70
2018-07-27T06:49:28.633Z,32.26
2018-07-27T06:50:32.833Z,32.20
2018-07-27T06:51:37.312Z,31.96
2018-07-27T06:52:41.606Z,31.97
2018-07-27T06:53:45.838Z,32.63
2018-07-27T06:54:50.040Z,32.35
2018-07-27T06:55:54.243Z,32.86
2018-07-27T06:56:58.542Z,32.34
2018-07-27T06:58:02.737Z,32.41
2018-07-27T06:59:06.990Z,32.75
2018-07-27T07:00:11.245Z,32.16
2018-07-27T07:01:15.506Z,32.52
2018-07-27T07:02:19.713Z,32.51
2018-07-27T07:03:24.007Z,32.62
2018-07-27T07:04:28.399Z,32.94
2018-07-27T07:05:32.646Z,33.31
2018-07-27T07:06:37.060Z,33.42
2018-07-27T07:07:41.225Z,33.26
2018-07-27T07:08:45.811Z,33.77
2018-07-27T07:09:50.346Z,33.40
2018-07-27T07:10:54.597Z,33.96
2018-07-27T07:11:58.801Z,33.74
2018-07-27T07:13:03.196Z,33.37
2018-07-27T07:14:07.725Z,34.28
2018-07-27T07:15:11.906Z,33.69
2018-07-27T07:16:16.131Z,33.64
2018-07-27T07:17:20.491Z,34.02
2018-07-27T07:18:24.644Z,34.24
2018-07-27T07:19:28.879Z,34.51
2018-07-27T07:20:33.067Z,34.15
2018-07-27T07:21:37.928Z,33.83
2018-07-27T07:22:42.579Z,33.95
2018-07-27T07:23:46.748Z,34.58
2018-07-27T07:24:50.933Z,34.35
2018-07-27T07:25:55.599Z,34.38
2018-07-27T07:27:00.573Z,34.64
2018-07-27T07:28:04.838Z,34.05
2018-07-27T07:29:09.047Z,34.64
2018-07-27T07:30:13.218Z,34.44
2018-07-27T07:31:17.402Z,34.50
2018-07-27T07:32:21.886Z,34.46
2018-07-27T07:33:26.116Z,34.54
2018-07-27T07:34:30.270Z,34.30
2018-07-27T07:35:34.508Z,34.58
2018-07-27T07:36:38.956Z,34.56
2018-07-27T07:37:43.137Z,34.73
2018-07-27T07:38:47.346Z,34.70
2018-07-27T07:39:51.842Z,35.35
2018-07-27T07:40:56.088Z,35.32
2018-07-27T07:42:00.338Z,34.83
2018-07-27T07:43:05.213Z,35.01
2018-07-27T07:44:09.845Z,35.42
2018-07-27T07:45:14.158Z,35.28
2018-07-27T07:46:18.446Z,34.39
2018-07-27T07:47:22.697Z,34.79
2018-07-27T07:48:26.912Z,34.78
2018-07-27T07:49:31.170Z,34.64
2018-07-27T07:50:35.353Z,34.58
2018-07-27T07:51:39.561Z,34.09
2018-07-27T07:52:43.807Z,34.42
2018-07-27T07:53:47.987Z,34.62
2018-07-27T07:54:52.613Z,34.14
2018-07-27T07:56:03.572Z,34.42
2018-07-27T07:57:07.763Z,34.90
2018-07-27T07:58:12.090Z,33.89
2018-07-27T07:59:16.294Z,34.52
2018-07-27T08:00:20.570Z,34.66
2018-07-27T08:01:24.813Z,34.20
2018-07-27T08:02:29.363Z,34.62
2018-07-27T08:03:33.597Z,34.22
2018-07-27T08:04:37.725Z,34.25
2018-07-27T08:05:42.284Z,34.26
2018-07-27T08:06:46.657Z,34.28
2018-07-27T08:07:50.854Z,34.29
2018-07-27T08:08:55.818Z,34.65
2018-07-27T08:10:00.278Z,34.00
2018-07-27T08:11:04.536Z,34.27
2018-07-27T08:12:08.670Z,34.05
2018-07-27T08:13:12.899Z,33.70
2018-07-27T08:14:17.106Z,34.08
2018-07-27T08:15:21.384Z,34.26
2018-07-27T08:16:25.614Z,34.36
2018-07-27T08:17:29.799Z,33.98
2018-07-27T08:18:34.034Z,34.47
2018-07-27T08:19:38.326Z,33.55
2018-07-27T08:20:42.517Z,33.66
2018-07-27T08:21:46.689Z,33.79
2018-07-27T08:22:51.473Z,33.83
2018-07-27T08:23:56.183Z,34.12
2018-07-27T08:25:00.410Z,33.13
2018-07-27T08:26:39.442Z,32.96
2018-07-27T08:27:43.638Z,33.44
2018-07-27T08:28:47.829Z,33.60
2018-07-27T08:29:52.030Z,33.60
2018-07-27T08:30:56.204Z,33.78
2018-07-27T08:32:00.838Z,33.73
2018-07-27T08:33:05.026Z,33.58
2018-07-27T08:34:15.034Z,33.07
2018-07-27T08:35:20.015Z,33.65
2018-07-27T08:36:30.295Z,33.04
2018-07-27T08:37:34.766Z,33.24
2018-07-27T08:38:39.083Z,33.30
2018-07-27T08:39:44.060Z,33.56
2018-07-27T08:40:48.197Z,33.33
2018-07-27T08:41:52.634Z,32.88
2018-07-27T08:42:57.637Z,33.03
2018-07-27T08:44:02.287Z,32.63
2018-07-27T08:45:06.600Z,32.69
2018-07-27T08:46:11.095Z,32.28
2018-07-27T08:47:15.317Z,32.50
2018-07-27T08:48:19.576Z,32.42
2018-07-27T08:49:23.809Z,32.27
2018-07-27T08:50:28.109Z,32.47
2018-07-27T08:51:32.638Z,32.48
2018-07-27T08:52:36.838Z,32.63
2018-07-27T08:53:41.011Z,32.53
2018-07-27T08:54:45.338Z,32.58
2018-07-27T08:55:49.890Z,32.70
2018-07-27T08:56:54.317Z,31.69
2018-07-27T08:57:58.561Z,31.64
2018-07-27T08:59:02.771Z,30.51
2018-07-27T09:00:08.269Z,30.75
2018-07-27T09:01:12.451Z,30.07
2018-07-27T09:02:16.713Z,30.18
2018-07-27T09:03:20.917Z,29.31
2018-07-27T09:04:25.175Z,29.99
2018-07-27T09:05:29.522Z,29.52
2018-07-27T09:06:33.673Z,28.96
2018-07-27T09:07:37.835Z,28.16
2018-07-27T09:08:42.174Z,28.54
2018-07-27T09:09:46.529Z,29.26
2018-07-27T09:10:50.835Z,29.95
2018-07-27T09:11:54.964Z,29.67
2018-07-27T09:12:59.318Z,30.31
2018-07-27T09:14:03.557Z,29.73
2018-07-27T09:15:07.986Z,29.49
2018-07-27T09:16:12.226Z,28.71
2018-07-27T09:17:16.433Z,29.47
2018-07-27T09:18:20.606Z,28.94
2018-07-27T09:19:24.819Z,28.27
2018-07-27T09:20:28.966Z,28.96
2018-07-27T09:21:33.421Z,28.29
2018-07-27T09:22:37.573Z,28.50
2018-07-27T09:23:42.138Z,28.44
2018-07-27T09:24:46.453Z,27.60
2018-07-27T09:25:50.674Z,28.26
2018-07-27T09:26:54.854Z,28.33
2018-07-27T09:27:59.077Z,27.93
2018-07-27T09:29:03.468Z,27.87
2018-07-27T09:30:07.613Z,28.26
2018-07-27T09:31:11.842Z,27.82
2018-07-27T09:32:16.188Z,27.45
2018-07-27T09:33:20.391Z,28.23
2018-07-27T09:34:24.637Z,27.82
2018-07-27T09:35:28.824Z,27.71
2018-07-27T09:36:32.965Z,28.11
2018-07-27T09:37:37.126Z,27.89
2018-07-27T09:38:41.521Z,28.51
2018-07-27T09:39:45.665Z,28.31
2018-07-27T09:40:50.126Z,28.06
2018-07-27T09:41:54.265Z,27.87
2018-07-27T09:42:58.522Z,27.75
2018-07-27T09:44:02.660Z,28.13
2018-07-27T09:45:07.045Z,27.80
2018-07-27T09:46:11.267Z,28.10
2018-07-27T09:47:15.452Z,27.35
2018-07-27T09:48:19.671Z,27.35
2018-07-27T09:49:24.087Z,27.89
2018-07-27T09:50:28.466Z,27.98
2018-07-27T09:51:32.661Z,27.36
2018-07-27T09:52:37.195Z,27.67
2018-07-27T09:53:41.511Z,28.00
2018-07-27T09:54:45.661Z,27.46
2018-07-27T09:55:49.912Z,27.41
2018-07-27T09:56:54.397Z,27.70
2018-07-27T09:57:58.605Z,27.96
2018-07-27T09:59:02.922Z,27.31
2018-07-27T10:00:07.343Z,27.64
2018-07-27T10:01:16.820Z,27.93
2018-07-27T10:02:20.996Z,27.11
2018-07-27T10:03:25.225Z,27.14
2018-07-27T10:04:29.449Z,27.24
2018-07-27T10:05:33.661Z,27.79
2018-07-27T10:06:37.817Z,26.92
2018-07-27T10:07:42.016Z,27.67
2018-07-27T10:08:46.178Z,27.19
2018-07-27T10:09:50.410Z,27.10
2018-07-27T10:10:54.617Z,27.34
2018-07-27T10:11:58.808Z,27.54
2018-07-27T10:13:02.936Z,27.57
2018-07-27T10:14:07.145Z,26.96
2018-07-27T10:15:11.457Z,27.76
2018-07-27T10:16:15.654Z,27.00
2018-07-27T10:17:19.853Z,27.72
2018-07-27T10:18:24.079Z,27.24
2018-07-27T10:19:28.581Z,27.27
2018-07-27T10:20:32.864Z,27.50
2018-07-27T10:21:37.075Z,27.37
2018-07-27T10:22:41.215Z,27.10
2018-07-27T10:23:45.649Z,27.30
2018-07-27T10:24:49.946Z,26.94
2018-07-27T10:25:54.136Z,27.05
2018-07-27T10:26:58.310Z,26.62
2018-07-27T10:28:02.455Z,27.29
2018-07-27T10:29:06.665Z,26.66
2018-07-27T10:30:10.893Z,26.95
2018-07-27T10:31:15.151Z,27.18
2018-07-27T10:32:19.361Z,27.25
2018-07-27T10:33:23.766Z,27.27
2018-07-27T10:34:28.491Z,26.72
2018-07-27T10:35:32.734Z,27.30
2018-07-27T10:36:36.987Z,26.92
2018-07-27T10:37:41.230Z,27.08
2018-07-27T10:38:45.542Z,27.05
2018-07-27T10:39:49.710Z,26.40
2018-07-27T10:40:54.022Z,26.54
2018-07-27T10:41:58.171Z,25.59
2018-07-27T10:43:02.271Z,25.87
2018-07-27T10:44:06.440Z,25.27
2018-07-27T10:45:10.614Z,25.30
2018-07-27T10:46:14.942Z,26.17
2018-07-27T10:47:19.142Z,25.76
2018-07-27T10:48:23.308Z,26.35
2018-07-27T10:49:27.753Z,26.21
2018-07-27T10:50:31.942Z,26.28
2018-07-27T10:51:36.086Z,26.34
2018-07-27T10:52:40.352Z,25.76
2018-07-27T10:53:44.621Z,25.96
2018-07-27T10:54:49.031Z,25.77
2018-07-27T10:55:53.307Z,25.80
2018-07-27T10:56:57.853Z,25.75
2018-07-27T10:58:02.063Z,25.83
2018-07-27T10:59:06.812Z,26.19
2018-07-27T11:00:14.349Z,25.62
2018-07-27T11:01:18.534Z,25.50
2018-07-27T11:02:22.709Z,25.44
2018-07-27T11:03:26.849Z,25.77
2018-07-27T11:04:30.975Z,25.45
2018-07-27T11:05:35.259Z,25.43
2018-07-27T11:06:39.467Z,25.33
2018-07-27T11:07:43.854Z,26.04
2018-07-27T11:08:48.196Z,25.47
2018-07-27T11:09:52.512Z,25.47
2018-07-27T11:10:56.729Z,25.96
2018-07-27T11:12:01.044Z,25.81
2018-07-27T11:13:05.284Z,25.53
2018-07-27T11:14:09.892Z,25.74
2018-07-27T11:15:14.611Z,25.58
2018-07-27T11:16:18.695Z,25.18
2018-07-27T11:17:22.983Z,25.74
2018-07-27T11:18:27.143Z,25.20
2018-07-27T11:19:31.672Z,25.55
2018-07-27T11:20:35.799Z,24.65
2018-07-27T11:21:40.001Z,24.44
2018-07-27T11:22:44.181Z,24.64
2018-07-27T11:23:48.645Z,24.37
2018-07-27T11:24:52.846Z,24.23
2018-07-27T11:25:57.025Z,24.41
2018-07-27T11:27:01.231Z,24.25
2018-07-27T11:28:05.418Z,24.10
2018-07-27T11:29:09.772Z,24.26
2018-07-27T11:30:14.002Z,24.42
2018-07-27T11:31:18.508Z,24.12
2018-07-27T11:32:22.659Z,24.35
2018-07-27T11:33:26.870Z,24.42
2018-07-27T11:34:31.066Z,24.57
2018-07-27T11:35:35.275Z,24.00
2018-07-27T11:36:39.477Z,23.99
2018-07-27T11:37:43.670Z,24.59
2018-07-27T11:38:47.847Z,24.46
2018-07-27T11:39:52.162Z,24.02
2018-07-27T11:40:56.684Z,24.22
2018-07-27T11:42:00.893Z,24.26
2018-07-27T11:43:05.100Z,24.03
2018-07-27T11:44:09.291Z,24.58
2018-07-27T11:45:13.626Z,24.15
2018-07-27T11:46:24.419Z,24.38
2018-07-27T11:47:28.567Z,24.61
2018-07-27T11:48:32.754Z,24.51
2018-07-27T11:49:36.986Z,24.12
2018-07-27T11:50:41.314Z,23.77
2018-07-27T11:51:45.680Z,24.36
2018-07-27T11:52:49.844Z,23.76
2018-07-27T11:53:54.150Z,24.43
2018-07-27T11:54:58.358Z,24.38
2018-07-27T11:56:02.583Z,23.96
2018-07-27T11:57:07.221Z,24.00
2018-07-27T11:58:11.471Z,24.66
2018-07-27T11:59:15.669Z,24.58
2018-07-27T12:00:19.852Z,24.64
2018-07-27T12:01:24.007Z,24.64
2018-07-27T12:02:28.213Z,24.35
2018-07-27T12:03:32.325Z,23.94
2018-07-27T12:04:36.535Z,23.76
2018-07-27T12:05:40.683Z,23.64
2018-07-27T12:06:44.871Z,23.65
2018-07-27T12:07:49.729Z,23.85
2018-07-27T12:08:54.326Z,23.98
2018-07-27T12:09:58.518Z,23.44
2018-07-27T12:11:03.146Z,23.71
2018-07-27T12:12:07.604Z,23.54
2018-07-27T12:13:11.790Z,23.66
2018-07-27T12:14:16.053Z,24.08
2018-07-27T12:15:20.539Z,23.56
2018-07-27T12:16:24.461Z,24.18
2018-07-27T12:17:28.658Z,23.98
2018-07-27T12:18:32.796Z,24.41
2018-07-27T12:19:36.944Z,24.02
2018-07-27T12:20:41.208Z,24.19
2018-07-27T12:21:45.646Z,24.05
2018-07-27T12:22:49.630Z,24.41
2018-07-27T12:23:54.070Z,23.99
2018-07-27T12:24:58.265Z,23.97
2018-07-27T12:26:02.386Z,24.19
2018-07-27T12:27:06.779Z,24.60
2018-07-27T12:28:10.953Z,23.85
2018-07-27T12:29:15.130Z,23.97
2018-07-27T12:30:19.336Z,23.88
2018-07-27T12:31:23.845Z,23.81
2018-07-27T12:32:27.965Z,23.91
2018-07-27T12:33:32.138Z,23.83
2018-07-27T12:34:36.829Z,23.87
2018-07-27T12:35:41.157Z,23.78
2018-07-27T12:36:45.412Z,23.83
2018-07-27T12:37:49.561Z,23.99
2018-07-27T12:38:54.115Z,23.52
2018-07-27T12:39:58.313Z,23.74
2018-07-27T12:41:02.701Z,24.03
2018-07-27T12:42:07.135Z,23.78
2018-07-27T12:43:11.298Z,23.74
2018-07-27T12:44:15.482Z,24.22
2018-07-27T12:45:19.850Z,23.60
2018-07-27T12:46:24.190Z,24.01
2018-07-27T12:47:28.598Z,23.77
2018-07-27T12:48:32.904Z,23.21
2018-07-27T12:49:37.102Z,23.47
2018-07-27T12:50:41.241Z,23.49
2018-07-27T12:51:45.423Z,23.00
2018-07-27T12:52:49.585Z,23.63
2018-07-27T12:53:53.871Z,23.47
2018-07-27T12:54:58.100Z,23.20
2018-07-27T12:56:02.281Z,22.74
2018-07-27T12:57:06.408Z,22.66
2018-07-27T12:58:10.558Z,22.59
2018-07-27T12:59:14.962Z,22.36
2018-07-27T13:00:19.190Z,22.54
2018-07-27T13:01:23.347Z,22.96
2018-07-27T13:02:27.523Z,22.95
2018-07-27T13:03:32.150Z,22.89
2018-07-27T13:04:36.328Z,23.02
2018-07-27T13:05:40.595Z,22.50
2018-07-27T13:06:44.759Z,22.44
2018-07-27T13:07:48.962Z,22.50
2018-07-27T13:08:53.065Z,22.80
2018-07-27T13:10:02.362Z,22.84
2018-07-27T13:11:06.669Z,22.59
2018-07-27T13:12:10.854Z,22.49
2018-07-27T13:13:15.145Z,22.46
2018-07-27T13:14:19.317Z,22.68
2018-07-27T13:15:23.479Z,22.45
2018-07-27T13:16:27.617Z,22.92
2018-07-27T13:17:31.903Z,22.95
2018-07-27T13:18:36.072Z,22.44
2018-07-27T13:19:40.254Z,23.00
2018-07-27T13:20:49.598Z,22.30
2018-07-27T13:21:53.949Z,22.84
2018-07-27T13:22:58.282Z,22.32
2018-07-27T13:24:03.414Z,22.31
2018-07-27T13:25:07.603Z,22.48
2018-07-27T13:26:29.159Z,22.99
2018-07-27T13:27:18.333Z,23.01
2018-07-27T13:28:22.521Z,22.57
2018-07-27T13:29:26.641Z,22.70
2018-07-27T13:30:30.886Z,22.59
2018-07-27T13:31:56.152Z,22.58
2018-07-27T13:35:52.969Z,23.04
2018-07-27T13:36:57.090Z,22.40
2018-07-27T13:38:01.270Z,22.91
2018-07-27T13:39:07.882Z,22.58
2018-07-27T13:40:12.104Z,22.72
2018-07-27T13:41:21.583Z,22.12
2018-07-27T13:42:26.962Z,22.26
2018-07-27T13:43:31.238Z,21.98
2018-07-27T13:44:36.635Z,22.59
2018-07-27T13:45:40.986Z,22.70
2018-07-27T13:46:51.530Z,22.20
2018-07-27T13:47:55.670Z,22.71
2018-07-27T13:48:59.857Z,22.30
2018-07-27T13:50:04.082Z,22.49
2018-07-27T13:51:08.262Z,22.04
2018-07-27T13:52:12.487Z,22.42
2018-07-27T13:53:16.897Z,22.35